F/V Fleur Des Vagues — FPEJ — position and weather

sailwx.info

Track history (hours):
 
Tides and Currents Weather Stations Pressure Air Temp Water Temp Dewpoint Dewpoint Depression Visibility Wind Speed Wind Dir Waves Ship Positions

F/V Fleur Des Vagues

Last reported at 2016-Jul-29 07:34 UTC. Time now 2016-Jul-29 07:52 UTC.
Position N 46°19' W 001°50'.

Length 16 m.

Type: Fishing. MMSI: 227893000.

Date/timePositionNaut miles runAvg speedWind from/ knotsBaromVisibWave heightAir tempDewpointWater temp
2016-Jul-29 07:34N 46°19' W 001°50'5 4.8
2016-Jul-29 06:33N 46°14' W 001°49'1 1.1
2016-Jul-29 05:33N 46°15' W 001°48'1 0.7
2016-Jul-29 04:33N 46°15' W 001°47'1 0.9
2016-Jul-29 03:34N 46°15' W 001°48'1 1.3
2016-Jul-29 02:34N 46°15' W 001°50'2 1.6
2016-Jul-29 01:33N 46°14' W 001°48'1 1.5
2016-Jul-29 00:33N 46°13' W 001°49'2 1.7
2016-Jul-28 23:33N 46°14' W 001°47'1 1.1
2016-Jul-28 22:33N 46°14' W 001°48'2 1.7
2016-Jul-28 21:33N 46°15' W 001°46'1 1.1
2016-Jul-28 20:33N 46°16' W 001°47'0 0.0
2016-Jul-28 19:33N 46°16' W 001°47'0 0.0
2016-Jul-28 18:33N 46°16' W 001°47'0 0.0
2016-Jul-28 17:33N 46°16' W 001°47'0 0.0
2016-Jul-28 16:34N 46°16' W 001°47'0 0.0
2016-Jul-28 15:33N 46°16' W 001°47'0 0.0
2016-Jul-28 14:33N 46°16' W 001°47'3 2.3
2016-Jul-28 13:27N 46°15' W 001°50'1 1.6
2016-Jul-28 12:34N 46°14' W 001°49'2 2.4
2016-Jul-28 11:33N 46°16' W 001°48'8 8.4
2016-Jul-28 10:33N 46°24' W 001°47'6 5.5
2016-Jul-28 09:33N 46°30' W 001°47'  
2016-Jul-22 08:33N 46°30' W 001°47'5 5.1
2016-Jul-22 07:33N 46°30' W 001°55'7 3.5
2016-Jul-22 05:33N 46°34' W 002°03'1 1.1
2016-Jul-22 04:30N 46°33' W 002°01'1 1.4
2016-Jul-22 03:33N 46°35' W 002°03'1 0.8
2016-Jul-22 02:34N 46°34' W 002°02'0 0.4
2016-Jul-22 01:33N 46°34' W 002°02'5 5.0
2016-Jul-22 00:33N 46°31' W 001°56'6 6.5
2016-Jul-21 23:33N 46°30' W 001°47'0 0.1
2016-Jul-21 22:33N 46°30' W 001°47'0 0.0
2016-Jul-21 21:33N 46°30' W 001°47'0 0.0
2016-Jul-21 20:33N 46°30' W 001°47'0 0.0
2016-Jul-21 19:33N 46°30' W 001°47'0 0.0
2016-Jul-21 18:33N 46°30' W 001°47'0 0.0
2016-Jul-21 17:33N 46°30' W 001°47'0 0.0
2016-Jul-21 16:33N 46°30' W 001°47'0 0.0
2016-Jul-21 15:33N 46°30' W 001°47'0 0.0
2016-Jul-21 14:33N 46°30' W 001°47'0 0.0
2016-Jul-21 13:33N 46°30' W 001°47'0 0.0
2016-Jul-21 12:33N 46°30' W 001°47'0 0.0
2016-Jul-21 11:33N 46°30' W 001°47'5 5.4
2016-Jul-21 10:33N 46°30' W 001°55'6 5.8
2016-Jul-21 09:33N 46°33' W 002°02'1 0.8
2016-Jul-21 08:33N 46°34' W 002°02'3 3.2
2016-Jul-21 07:33N 46°32' W 001°60'2 1.6
2016-Jul-21 06:33N 46°30' W 002°01'0 0.3
2016-Jul-21 05:33N 46°31' W 002°01'1 0.8
2016-Jul-21 04:33N 46°30' W 001°60'0 0.4
2016-Jul-21 03:33N 46°30' W 001°59'0 0.2
2016-Jul-21 02:33N 46°30' W 001°59'1 0.8
2016-Jul-21 01:33N 46°31' W 001°60'3 3.3
2016-Jul-21 00:33N 46°29' W 001°56'6 5.8
2016-Jul-20 23:33N 46°30' W 001°47'0 0.0
2016-Jul-20 22:33N 46°30' W 001°47'0 0.0
2016-Jul-20 21:33N 46°30' W 001°47'0 0.0
2016-Jul-20 20:33N 46°30' W 001°47'0 0.0
2016-Jul-20 19:33N 46°30' W 001°47'0 0.0
2016-Jul-20 18:33N 46°30' W 001°47'0 0.0
2016-Jul-20 17:33N 46°30' W 001°47'0 0.0
2016-Jul-20 16:34N 46°30' W 001°47'0 0.0
2016-Jul-20 15:33N 46°30' W 001°47'0 0.0
2016-Jul-20 14:33N 46°30' W 001°47'0 0.0
2016-Jul-20 13:33N 46°30' W 001°47'0 0.0
2016-Jul-20 12:33N 46°30' W 001°47'0 0.0
2016-Jul-20 11:33N 46°30' W 001°47'4 3.8
2016-Jul-20 10:33N 46°29' W 001°52'6 5.9
2016-Jul-20 09:34N 46°30' W 002°01'1 1.2
2016-Jul-20 08:33N 46°30' W 001°59'1 1.5
2016-Jul-20 07:33N 46°31' W 002°01'1 0.6
2016-Jul-20 06:34N 46°30' W 002°01'0 0.3
2016-Jul-20 05:33N 46°30' W 002°01'0 0.3
2016-Jul-20 04:34N 46°30' W 002°02'1 1.1
2016-Jul-20 03:33N 46°31' W 002°00'1 0.6
2016-Jul-20 02:33N 46°31' W 001°60'1 1.0
2016-Jul-20 01:33N 46°31' W 002°00'2 2.5
2016-Jul-20 00:33N 46°30' W 001°57'7 6.7
2016-Jul-19 23:33N 46°30' W 001°48'0 0.3
2016-Jul-19 22:26N 46°30' W 001°47'0 0.0
2016-Jul-19 20:30N 46°30' W 001°47'0 0.0
2016-Jul-19 19:33N 46°30' W 001°47'0 0.0
2016-Jul-19 18:33N 46°30' W 001°47'0 0.0
2016-Jul-19 17:25N 46°30' W 001°47'0 0.0
2016-Jul-19 16:33N 46°30' W 001°47'0 0.0
2016-Jul-19 14:24N 46°30' W 001°47'0 0.0
2016-Jul-19 13:33N 46°30' W 001°47'4 3.7
2016-Jul-19 12:33N 46°29' W 001°52'7 6.5
2016-Jul-19 11:33N 46°30' W 002°01'1 1.3
2016-Jul-19 10:33N 46°31' W 002°00'4 3.6
2016-Jul-19 09:33N 46°29' W 002°04'0 0.2
2016-Jul-19 08:33N 46°29' W 002°04'  
Track history (hours):
 
Tides and Currents Weather Stations Pressure Air Temp Water Temp Dewpoint Dewpoint Depression Visibility Wind Speed Wind Dir Waves Ship Positions

F/V Fleur Des Vagues

Last reported at 2016-Jul-29 07:34 UTC. Time now 2016-Jul-29 07:52 UTC.
Position N 46°19' W 001°50'.

Length 16 m.

Type: Fishing. MMSI: 227893000.

Date/timePositionNaut miles runAvg speedWind from/ knotsBaromVisibWave heightAir tempDewpointWater temp
2016-Jul-29 07:34N 46°19' W 001°50'5 4.8
2016-Jul-29 06:33N 46°14' W 001°49'1 1.1
2016-Jul-29 05:33N 46°15' W 001°48'1 0.7
2016-Jul-29 04:33N 46°15' W 001°47'1 0.9
2016-Jul-29 03:34N 46°15' W 001°48'1 1.3
2016-Jul-29 02:34N 46°15' W 001°50'2 1.6
2016-Jul-29 01:33N 46°14' W 001°48'1 1.5
2016-Jul-29 00:33N 46°13' W 001°49'2 1.7
2016-Jul-28 23:33N 46°14' W 001°47'1 1.1
2016-Jul-28 22:33N 46°14' W 001°48'2 1.7
2016-Jul-28 21:33N 46°15' W 001°46'1 1.1
2016-Jul-28 20:33N 46°16' W 001°47'0 0.0
2016-Jul-28 19:33N 46°16' W 001°47'0 0.0
2016-Jul-28 18:33N 46°16' W 001°47'0 0.0
2016-Jul-28 17:33N 46°16' W 001°47'0 0.0
2016-Jul-28 16:34N 46°16' W 001°47'0 0.0
2016-Jul-28 15:33N 46°16' W 001°47'0 0.0
2016-Jul-28 14:33N 46°16' W 001°47'3 2.3
2016-Jul-28 13:27N 46°15' W 001°50'1 1.6
2016-Jul-28 12:34N 46°14' W 001°49'2 2.4
2016-Jul-28 11:33N 46°16' W 001°48'8 8.4
2016-Jul-28 10:33N 46°24' W 001°47'6 5.5
2016-Jul-28 09:33N 46°30' W 001°47'  
2016-Jul-22 08:33N 46°30' W 001°47'5 5.1
2016-Jul-22 07:33N 46°30' W 001°55'7 3.5
2016-Jul-22 05:33N 46°34' W 002°03'1 1.1
2016-Jul-22 04:30N 46°33' W 002°01'1 1.4
2016-Jul-22 03:33N 46°35' W 002°03'1 0.8
2016-Jul-22 02:34N 46°34' W 002°02'0 0.4
2016-Jul-22 01:33N 46°34' W 002°02'5 5.0
2016-Jul-22 00:33N 46°31' W 001°56'6 6.5
2016-Jul-21 23:33N 46°30' W 001°47'0 0.1
2016-Jul-21 22:33N 46°30' W 001°47'0 0.0
2016-Jul-21 21:33N 46°30' W 001°47'0 0.0
2016-Jul-21 20:33N 46°30' W 001°47'0 0.0
2016-Jul-21 19:33N 46°30' W 001°47'0 0.0
2016-Jul-21 18:33N 46°30' W 001°47'0 0.0
2016-Jul-21 17:33N 46°30' W 001°47'0 0.0
2016-Jul-21 16:33N 46°30' W 001°47'0 0.0
2016-Jul-21 15:33N 46°30' W 001°47'0 0.0
2016-Jul-21 14:33N 46°30' W 001°47'0 0.0
2016-Jul-21 13:33N 46°30' W 001°47'0 0.0
2016-Jul-21 12:33N 46°30' W 001°47'0 0.0
2016-Jul-21 11:33N 46°30' W 001°47'5 5.4
2016-Jul-21 10:33N 46°30' W 001°55'6 5.8
2016-Jul-21 09:33N 46°33' W 002°02'1 0.8
2016-Jul-21 08:33N 46°34' W 002°02'3 3.2
2016-Jul-21 07:33N 46°32' W 001°60'2 1.6
2016-Jul-21 06:33N 46°30' W 002°01'0 0.3
2016-Jul-21 05:33N 46°31' W 002°01'1 0.8
2016-Jul-21 04:33N 46°30' W 001°60'0 0.4
2016-Jul-21 03:33N 46°30' W 001°59'0 0.2
2016-Jul-21 02:33N 46°30' W 001°59'1 0.8
2016-Jul-21 01:33N 46°31' W 001°60'3 3.3
2016-Jul-21 00:33N 46°29' W 001°56'6 5.8
2016-Jul-20 23:33N 46°30' W 001°47'0 0.0
2016-Jul-20 22:33N 46°30' W 001°47'0 0.0
2016-Jul-20 21:33N 46°30' W 001°47'0 0.0
2016-Jul-20 20:33N 46°30' W 001°47'0 0.0
2016-Jul-20 19:33N 46°30' W 001°47'0 0.0
2016-Jul-20 18:33N 46°30' W 001°47'0 0.0
2016-Jul-20 17:33N 46°30' W 001°47'0 0.0
2016-Jul-20 16:34N 46°30' W 001°47'0 0.0
2016-Jul-20 15:33N 46°30' W 001°47'0 0.0
2016-Jul-20 14:33N 46°30' W 001°47'0 0.0
2016-Jul-20 13:33N 46°30' W 001°47'0 0.0
2016-Jul-20 12:33N 46°30' W 001°47'0 0.0
2016-Jul-20 11:33N 46°30' W 001°47'4 3.8
2016-Jul-20 10:33N 46°29' W 001°52'6 5.9
2016-Jul-20 09:34N 46°30' W 002°01'1 1.2
2016-Jul-20 08:33N 46°30' W 001°59'1 1.5
2016-Jul-20 07:33N 46°31' W 002°01'1 0.6
2016-Jul-20 06:34N 46°30' W 002°01'0 0.3
2016-Jul-20 05:33N 46°30' W 002°01'0 0.3
2016-Jul-20 04:34N 46°30' W 002°02'1 1.1
2016-Jul-20 03:33N 46°31' W 002°00'1 0.6
2016-Jul-20 02:33N 46°31' W 001°60'1 1.0
2016-Jul-20 01:33N 46°31' W 002°00'2 2.5
2016-Jul-20 00:33N 46°30' W 001°57'7 6.7
2016-Jul-19 23:33N 46°30' W 001°48'0 0.3
2016-Jul-19 22:26N 46°30' W 001°47'0 0.0
2016-Jul-19 20:30N 46°30' W 001°47'0 0.0
2016-Jul-19 19:33N 46°30' W 001°47'0 0.0
2016-Jul-19 18:33N 46°30' W 001°47'0 0.0
2016-Jul-19 17:25N 46°30' W 001°47'0 0.0
2016-Jul-19 16:33N 46°30' W 001°47'0 0.0
2016-Jul-19 14:24N 46°30' W 001°47'0 0.0
2016-Jul-19 13:33N 46°30' W 001°47'4 3.7
2016-Jul-19 12:33N 46°29' W 001°52'7 6.5
2016-Jul-19 11:33N 46°30' W 002°01'1 1.3
2016-Jul-19 10:33N 46°31' W 002°00'4 3.6
2016-Jul-19 09:33N 46°29' W 002°04'0 0.2
2016-Jul-19 08:33N 46°29' W 002°04'  

Dump ship's entire track history